createdAt,value
2022-08-19T00:01:53.240Z,21.20
2022-08-19T00:04:23.263Z,21.20
2022-08-19T00:06:50.075Z,21.20
2022-08-19T00:09:19.782Z,21.20
2022-08-19T00:11:46.951Z,21.20
2022-08-19T00:14:16.444Z,21.10
2022-08-19T00:16:44.923Z,21.20
2022-08-19T00:19:11.837Z,21.20
2022-08-19T00:21:40.307Z,21.20
2022-08-19T00:24:12.171Z,21.20
2022-08-19T00:26:39.499Z,21.20
2022-08-19T00:29:08.644Z,21.20
2022-08-19T00:31:35.200Z,21.20
2022-08-19T00:34:02.488Z,21.10
2022-08-19T00:36:29.841Z,21.10
2022-08-19T00:38:56.968Z,21.10
2022-08-19T00:41:25.852Z,21.10
2022-08-19T00:44:02.878Z,21.10
2022-08-19T00:46:30.136Z,21.00
2022-08-19T00:48:58.429Z,21.00
2022-08-19T00:51:28.118Z,21.10
2022-08-19T00:53:57.829Z,21.00
2022-08-19T00:56:27.247Z,21.00
2022-08-19T00:58:57.200Z,21.00
2022-08-19T01:01:23.852Z,21.00
2022-08-19T01:03:58.121Z,21.00
2022-08-19T01:06:26.762Z,21.00
2022-08-19T01:08:55.870Z,21.00
2022-08-19T01:11:22.503Z,21.00
2022-08-19T01:13:51.087Z,21.00
2022-08-19T01:16:20.132Z,21.10
2022-08-19T01:18:47.068Z,21.10
2022-08-19T01:21:25.663Z,21.10
2022-08-19T01:23:52.595Z,21.10
2022-08-19T01:26:22.428Z,21.10
2022-08-19T01:28:52.298Z,21.10
2022-08-19T01:31:26.881Z,21.10
2022-08-19T01:33:56.927Z,21.10
2022-08-19T01:36:28.713Z,21.10
2022-08-19T01:38:56.073Z,21.10
2022-08-19T01:41:24.359Z,21.10
2022-08-19T01:44:09.814Z,21.10
2022-08-19T01:46:40.166Z,21.10
2022-08-19T01:49:08.909Z,21.00
2022-08-19T01:51:38.518Z,21.00
2022-08-19T01:54:10.717Z,21.00
2022-08-19T01:56:39.468Z,21.00
2022-08-19T01:59:12.400Z,21.00
2022-08-19T02:01:39.062Z,20.90
2022-08-19T02:04:06.653Z,20.90
2022-08-19T02:06:33.998Z,20.90
2022-08-19T02:09:01.103Z,20.90
2022-08-19T02:11:34.331Z,20.90
2022-08-19T02:14:03.067Z,20.90
2022-08-19T02:16:29.737Z,20.80
2022-08-19T02:18:56.435Z,20.90
2022-08-19T02:21:24.698Z,20.90
2022-08-19T02:23:51.866Z,20.80
2022-08-19T02:26:20.134Z,20.80
2022-08-19T02:28:47.258Z,20.70
2022-08-19T02:31:19.987Z,20.80
2022-08-19T02:33:47.329Z,20.80
2022-08-19T02:36:15.442Z,20.80
2022-08-19T02:38:43.157Z,20.80
2022-08-19T02:41:26.950Z,20.80
2022-08-19T02:44:23.000Z,20.80
2022-08-19T02:46:42.166Z,20.80
2022-08-19T02:49:09.005Z,20.80
2022-08-19T02:51:39.471Z,20.90
2022-08-19T02:54:08.265Z,20.90
2022-08-19T02:56:40.246Z,20.80
2022-08-19T02:59:11.957Z,20.80
2022-08-19T03:01:41.118Z,20.80
2022-08-19T03:04:09.701Z,20.80
2022-08-19T03:06:41.680Z,20.70
2022-08-19T03:09:08.576Z,20.70
2022-08-19T03:11:35.485Z,20.60
2022-08-19T03:14:03.867Z,20.50
2022-08-19T03:16:33.145Z,20.60
2022-08-19T03:19:00.957Z,20.50
2022-08-19T03:21:30.201Z,20.50
2022-08-19T03:23:57.288Z,20.50
2022-08-19T03:26:23.931Z,20.50
2022-08-19T03:28:51.708Z,20.50
2022-08-19T03:31:44.530Z,20.50
2022-08-19T03:34:15.644Z,20.50
2022-08-19T03:36:42.793Z,20.40
2022-08-19T03:39:11.109Z,20.40
2022-08-19T03:41:45.857Z,20.30
2022-08-19T03:44:17.770Z,20.30
2022-08-19T03:46:46.280Z,20.30
2022-08-19T03:49:13.998Z,20.30
2022-08-19T03:51:42.494Z,20.40
2022-08-19T03:54:11.514Z,20.30
2022-08-19T03:56:40.919Z,20.30
2022-08-19T03:59:11.633Z,20.30
2022-08-19T04:01:38.360Z,20.30
2022-08-19T04:04:05.280Z,20.30
2022-08-19T04:06:39.543Z,20.30
2022-08-19T04:09:10.256Z,20.30
2022-08-19T04:11:43.261Z,20.20
2022-08-19T04:14:18.066Z,20.20
2022-08-19T04:16:45.855Z,20.20
2022-08-19T04:19:13.167Z,20.20
2022-08-19T04:21:40.418Z,20.10
2022-08-19T04:24:07.365Z,20.10
2022-08-19T04:26:37.529Z,20.00
2022-08-19T04:29:12.588Z,20.00
2022-08-19T04:31:40.949Z,19.90
2022-08-19T04:34:11.714Z,19.90
2022-08-19T04:36:41.433Z,19.90
2022-08-19T04:39:16.507Z,19.80
2022-08-19T04:42:02.034Z,19.80
2022-08-19T04:44:31.460Z,19.80
2022-08-19T04:47:00.323Z,19.90
2022-08-19T04:49:28.650Z,19.90
2022-08-19T04:51:56.276Z,20.00
2022-08-19T04:54:37.416Z,20.00
2022-08-19T04:57:10.569Z,20.00
2022-08-19T04:59:39.103Z,20.10
2022-08-19T05:02:07.557Z,20.10
2022-08-19T05:04:34.428Z,20.10
2022-08-19T05:07:02.297Z,20.20
2022-08-19T05:09:39.078Z,20.30
2022-08-19T05:12:17.033Z,20.30
2022-08-19T05:14:45.285Z,20.40
2022-08-19T05:17:27.212Z,20.40
2022-08-19T05:20:13.515Z,20.50
2022-08-19T05:22:41.027Z,20.60
2022-08-19T05:25:14.311Z,20.70
2022-08-19T05:27:42.431Z,20.80
2022-08-19T05:30:10.044Z,20.90
2022-08-19T05:32:36.883Z,21.00
2022-08-19T05:35:04.429Z,21.20
2022-08-19T05:37:31.082Z,21.30
2022-08-19T05:39:57.793Z,21.40
2022-08-19T05:42:24.488Z,21.40
2022-08-19T05:44:52.412Z,21.50
2022-08-19T05:47:21.060Z,21.60
2022-08-19T05:49:48.687Z,21.70
2022-08-19T05:52:18.597Z,21.70
2022-08-19T05:54:51.513Z,21.80
2022-08-19T05:57:19.982Z,21.90
2022-08-19T05:59:50.945Z,22.10
2022-08-19T06:02:19.786Z,22.20
2022-08-19T06:04:46.603Z,22.30
2022-08-19T06:07:13.271Z,22.40
2022-08-19T06:09:41.074Z,22.50
2022-08-19T06:12:10.286Z,22.50
2022-08-19T06:14:37.617Z,22.60
2022-08-19T06:17:08.556Z,22.70
2022-08-19T06:19:40.518Z,22.90
2022-08-19T06:22:08.299Z,23.00
2022-08-19T06:24:36.050Z,23.00
2022-08-19T06:27:04.189Z,23.20
2022-08-19T06:29:31.073Z,23.20
2022-08-19T06:32:00.267Z,23.30
2022-08-19T06:34:28.873Z,23.30
2022-08-19T06:36:57.113Z,23.40
2022-08-19T06:39:26.274Z,23.50
2022-08-19T06:41:58.184Z,23.50
2022-08-19T06:44:28.708Z,23.60
2022-08-19T06:46:57.751Z,23.70
2022-08-19T06:49:25.950Z,23.70
2022-08-19T06:51:52.640Z,23.90
2022-08-19T06:54:20.326Z,24.00
2022-08-19T06:56:47.525Z,24.10
2022-08-19T06:59:18.613Z,24.30
2022-08-19T07:01:49.020Z,24.60
2022-08-19T07:04:19.692Z,24.80
2022-08-19T07:06:55.071Z,25.10
2022-08-19T07:09:22.492Z,25.30
2022-08-19T07:11:51.045Z,25.50
2022-08-19T07:14:21.046Z,25.70
2022-08-19T07:16:49.482Z,25.80
2022-08-19T07:19:18.984Z,26.00
2022-08-19T07:21:53.505Z,26.20
2022-08-19T07:24:24.234Z,26.30
2022-08-19T07:26:52.523Z,26.30
2022-08-19T07:29:23.822Z,26.50
2022-08-19T07:31:53.323Z,26.80
2022-08-19T07:34:20.974Z,27.10
2022-08-19T07:36:47.773Z,27.20
2022-08-19T07:39:25.429Z,27.40
2022-08-19T07:41:53.310Z,27.50
2022-08-19T07:44:21.459Z,27.60
2022-08-19T07:46:53.194Z,27.70
2022-08-19T07:49:21.045Z,28.00
2022-08-19T07:52:08.873Z,28.10
2022-08-19T07:54:37.644Z,28.30
2022-08-19T07:57:05.517Z,28.70
2022-08-19T07:59:32.510Z,28.80
2022-08-19T08:02:01.268Z,28.90
2022-08-19T08:04:48.359Z,29.10
2022-08-19T08:07:33.929Z,29.60
2022-08-19T08:10:03.770Z,30.00
2022-08-19T08:12:35.255Z,30.40
2022-08-19T08:15:08.297Z,30.50
2022-08-19T08:17:49.467Z,30.90
2022-08-19T08:20:18.768Z,30.90
2022-08-19T08:23:05.620Z,31.20
2022-08-19T08:25:34.427Z,31.30
2022-08-19T08:28:03.179Z,31.10
2022-08-19T08:30:31.279Z,31.40
2022-08-19T08:33:00.227Z,31.90
2022-08-19T08:35:29.335Z,32.40
2022-08-19T08:37:57.398Z,33.00
2022-08-19T08:40:28.512Z,34.10
2022-08-19T08:43:11.327Z,36.10
2022-08-19T08:45:45.562Z,38.20
2022-08-19T08:48:45.610Z,39.40
2022-08-19T08:51:20.576Z,39.40
2022-08-19T08:53:50.503Z,39.40
2022-08-19T08:56:23.419Z,38.10
2022-08-19T08:58:57.564Z,36.30
2022-08-19T09:01:24.250Z,35.10
2022-08-19T09:03:57.084Z,34.00
2022-08-19T09:06:33.127Z,34.10
2022-08-19T09:09:17.859Z,36.10
2022-08-19T09:11:51.782Z,37.90
2022-08-19T09:14:49.318Z,39.40
2022-08-19T09:17:11.319Z,38.60
2022-08-19T09:19:49.757Z,38.60
2022-08-19T09:22:23.590Z,39.60
2022-08-19T09:24:53.336Z,40.90
2022-08-19T09:27:42.032Z,39.90
2022-08-19T09:30:23.585Z,38.70
2022-08-19T09:32:53.428Z,37.10
2022-08-19T09:35:25.691Z,36.20
2022-08-19T09:37:57.631Z,36.00
2022-08-19T09:40:31.936Z,37.20
2022-08-19T09:43:03.402Z,39.00
2022-08-19T09:45:36.945Z,39.90
2022-08-19T09:48:03.790Z,39.30
2022-08-19T09:50:39.284Z,38.60
2022-08-19T09:53:19.127Z,39.60
2022-08-19T09:55:46.088Z,40.80
2022-08-19T09:58:12.874Z,41.70
2022-08-19T10:00:39.772Z,42.80
2022-08-19T10:03:07.146Z,43.40
2022-08-19T10:05:50.241Z,44.10
2022-08-19T10:08:26.442Z,43.30
2022-08-19T10:10:54.175Z,41.40
2022-08-19T10:13:24.534Z,39.80
2022-08-19T10:15:52.309Z,39.50
2022-08-19T10:18:21.534Z,40.40
2022-08-19T10:20:51.788Z,41.10
2022-08-19T10:23:21.233Z,41.90
2022-08-19T10:25:48.771Z,43.00
2022-08-19T10:28:15.492Z,43.40
2022-08-19T10:30:42.743Z,43.90
2022-08-19T10:33:11.338Z,44.30
2022-08-19T10:35:42.727Z,44.10
2022-08-19T10:38:31.493Z,44.00
2022-08-19T10:41:07.437Z,42.50
2022-08-19T10:43:38.075Z,41.80
2022-08-19T10:46:06.505Z,42.00
2022-08-19T10:48:41.381Z,42.50
2022-08-19T10:51:26.693Z,43.50
2022-08-19T10:53:54.380Z,44.00
2022-08-19T10:56:39.755Z,44.10
2022-08-19T10:59:06.491Z,44.80
2022-08-19T11:01:35.375Z,43.00
2022-08-19T11:04:04.077Z,40.90
2022-08-19T11:06:33.780Z,39.20
2022-08-19T11:09:00.894Z,39.20
2022-08-19T11:11:29.462Z,40.20
2022-08-19T11:13:56.412Z,41.60
2022-08-19T11:16:26.472Z,42.70
2022-08-19T11:18:56.107Z,43.40
2022-08-19T11:21:25.849Z,43.50
2022-08-19T11:23:56.556Z,43.50
2022-08-19T11:26:24.101Z,42.50
2022-08-19T11:28:54.940Z,41.10
2022-08-19T11:31:24.254Z,40.60
2022-08-19T11:34:02.445Z,39.70
2022-08-19T11:36:29.517Z,38.90
2022-08-19T11:38:56.657Z,39.10
2022-08-19T11:41:24.626Z,40.00
2022-08-19T11:43:54.580Z,41.20
2022-08-19T11:46:22.605Z,41.40
2022-08-19T11:48:50.788Z,40.50
2022-08-19T11:51:20.941Z,38.90
2022-08-19T11:53:47.747Z,37.40
2022-08-19T11:56:14.429Z,36.30
2022-08-19T11:58:44.673Z,36.30
2022-08-19T12:01:17.152Z,36.60
2022-08-19T12:03:45.927Z,36.60
2022-08-19T12:06:18.293Z,36.20
2022-08-19T12:08:46.035Z,35.90
2022-08-19T12:11:14.618Z,35.90
2022-08-19T12:13:42.515Z,35.80
2022-08-19T12:16:15.827Z,35.30
2022-08-19T12:18:47.206Z,34.50
2022-08-19T12:21:19.175Z,33.90
2022-08-19T12:23:46.266Z,33.60
2022-08-19T12:26:13.020Z,33.60
2022-08-19T12:28:39.995Z,33.70
2022-08-19T12:31:06.967Z,33.80
2022-08-19T12:33:33.867Z,33.60
2022-08-19T12:36:06.272Z,33.50
2022-08-19T12:38:33.652Z,33.40
2022-08-19T12:41:00.542Z,33.00
2022-08-19T12:43:27.855Z,32.80
2022-08-19T12:45:54.481Z,32.70
2022-08-19T12:48:33.599Z,32.70
2022-08-19T12:51:06.771Z,32.70
2022-08-19T12:53:33.431Z,32.80
2022-08-19T12:56:01.370Z,32.60
2022-08-19T12:58:29.777Z,32.30
2022-08-19T13:00:56.486Z,32.00
2022-08-19T13:03:28.305Z,31.80
2022-08-19T13:05:54.897Z,31.50
2022-08-19T13:08:21.448Z,31.20
2022-08-19T13:10:48.131Z,31.10
2022-08-19T13:13:14.962Z,31.10
2022-08-19T13:15:42.877Z,31.30
2022-08-19T13:18:11.233Z,31.60
2022-08-19T13:20:39.364Z,31.70
2022-08-19T13:23:05.973Z,32.00
2022-08-19T13:25:32.852Z,32.40
2022-08-19T13:28:00.837Z,32.80
2022-08-19T13:30:46.240Z,33.10
2022-08-19T13:33:15.957Z,33.10
2022-08-19T13:35:49.463Z,32.90
2022-08-19T13:38:19.239Z,32.80
2022-08-19T13:40:47.157Z,32.90
2022-08-19T13:43:22.842Z,32.70
2022-08-19T13:45:51.607Z,32.60
2022-08-19T13:48:19.626Z,32.30
2022-08-19T13:50:48.201Z,32.00
2022-08-19T13:53:15.963Z,31.90
2022-08-19T13:55:43.960Z,31.80
2022-08-19T13:58:11.649Z,31.70
2022-08-19T14:00:42.002Z,31.50
2022-08-19T14:03:09.571Z,31.30
2022-08-19T14:05:37.150Z,31.10
2022-08-19T14:08:04.204Z,31.00
2022-08-19T14:10:32.391Z,31.00
2022-08-19T14:13:01.469Z,30.90
2022-08-19T14:15:29.257Z,30.90
2022-08-19T14:17:56.692Z,31.20
2022-08-19T14:20:26.266Z,31.30
2022-08-19T14:22:53.957Z,31.50
2022-08-19T14:25:24.989Z,31.40
2022-08-19T14:27:51.661Z,31.40
2022-08-19T14:30:22.631Z,31.20
2022-08-19T14:32:49.334Z,31.00
2022-08-19T14:35:16.934Z,30.90
2022-08-19T14:37:55.970Z,30.70
2022-08-19T14:40:26.750Z,30.60
2022-08-19T14:42:59.927Z,30.50
2022-08-19T14:45:28.566Z,30.30
2022-08-19T14:47:55.616Z,30.30
2022-08-19T14:50:23.370Z,30.40
2022-08-19T14:52:50.086Z,30.60
2022-08-19T14:55:18.183Z,30.60
2022-08-19T14:57:45.846Z,30.60
2022-08-19T15:00:14.115Z,30.50
2022-08-19T15:02:41.855Z,30.60
2022-08-19T15:05:09.247Z,30.60
2022-08-19T15:07:35.923Z,30.70
2022-08-19T15:10:02.580Z,30.80
2022-08-19T15:12:29.252Z,30.70
2022-08-19T15:14:56.834Z,30.70
2022-08-19T15:17:34.117Z,30.60
2022-08-19T15:20:13.515Z,30.60
2022-08-19T15:22:42.560Z,30.60
2022-08-19T15:25:11.917Z,30.60
2022-08-19T15:27:40.493Z,30.50
2022-08-19T15:30:09.595Z,30.40
2022-08-19T15:32:37.112Z,30.20
2022-08-19T15:35:05.927Z,30.20
2022-08-19T15:37:32.659Z,30.10
2022-08-19T15:40:06.157Z,30.00
2022-08-19T15:42:33.281Z,30.00
2022-08-19T15:45:00.690Z,30.00
2022-08-19T15:47:34.582Z,30.00
2022-08-19T15:50:14.782Z,30.00
2022-08-19T15:53:00.752Z,29.90
2022-08-19T15:55:33.286Z,30.00
2022-08-19T15:58:28.806Z,30.10
2022-08-19T16:01:20.494Z,30.20
2022-08-19T16:04:13.880Z,30.20
2022-08-19T16:06:45.199Z,30.30
2022-08-19T16:09:12.948Z,30.30
2022-08-19T16:11:39.849Z,30.20
2022-08-19T16:14:09.283Z,30.30
2022-08-19T16:16:36.838Z,30.30
2022-08-19T16:19:10.213Z,30.40
2022-08-19T16:21:39.428Z,30.40
2022-08-19T16:24:10.465Z,30.40
2022-08-19T16:26:37.443Z,30.40
2022-08-19T16:29:08.837Z,30.40
2022-08-19T16:31:39.387Z,30.40
2022-08-19T16:34:06.820Z,30.30
2022-08-19T16:36:33.626Z,30.20
2022-08-19T16:39:00.662Z,30.10
2022-08-19T16:41:27.876Z,30.00
2022-08-19T16:43:55.221Z,29.90
2022-08-19T16:46:23.194Z,29.80
2022-08-19T16:48:54.372Z,29.70
2022-08-19T16:51:22.622Z,29.70
2022-08-19T16:53:52.543Z,29.70
2022-08-19T16:56:20.239Z,29.50
2022-08-19T16:58:47.642Z,29.50
2022-08-19T17:01:14.470Z,29.50
2022-08-19T17:03:41.540Z,29.40
2022-08-19T17:06:20.737Z,29.30
2022-08-19T17:08:50.339Z,29.30
2022-08-19T17:11:19.322Z,29.30
2022-08-19T17:13:47.748Z,29.20
2022-08-19T17:16:15.927Z,29.20
2022-08-19T17:18:42.560Z,29.20
2022-08-19T17:21:09.265Z,29.20
2022-08-19T17:23:43.103Z,29.00
2022-08-19T17:26:16.863Z,28.90
2022-08-19T17:28:49.497Z,28.90
2022-08-19T17:31:18.396Z,28.80
2022-08-19T17:33:48.241Z,28.70
2022-08-19T17:36:17.498Z,28.60
2022-08-19T17:38:44.940Z,28.60
2022-08-19T17:41:11.717Z,28.60
2022-08-19T17:43:42.846Z,28.50
2022-08-19T17:46:18.233Z,28.40
2022-08-19T17:48:51.872Z,28.40
2022-08-19T17:51:24.475Z,28.30
2022-08-19T17:53:53.235Z,28.30
2022-08-19T17:56:21.384Z,28.20
2022-08-19T17:58:52.030Z,28.10
2022-08-19T18:01:26.875Z,28.00
2022-08-19T18:03:58.802Z,27.90
2022-08-19T18:06:25.415Z,27.80
2022-08-19T18:08:52.333Z,27.70
2022-08-19T18:11:19.179Z,27.60
2022-08-19T18:13:45.819Z,27.50
2022-08-19T18:16:13.386Z,27.40
2022-08-19T18:18:42.022Z,27.30
2022-08-19T18:21:09.739Z,27.20
2022-08-19T18:23:45.045Z,27.10
2022-08-19T18:26:12.801Z,27.00
2022-08-19T18:28:39.842Z,26.90
2022-08-19T18:31:16.945Z,26.80
2022-08-19T18:33:45.115Z,26.60
2022-08-19T18:36:12.098Z,26.60
2022-08-19T18:38:57.358Z,26.50
2022-08-19T18:41:43.396Z,26.40
2022-08-19T18:44:29.067Z,26.30
2022-08-19T18:47:14.297Z,26.20
2022-08-19T18:49:41.058Z,26.20
2022-08-19T18:52:07.699Z,26.10
2022-08-19T18:54:35.580Z,26.10
2022-08-19T18:57:03.294Z,26.00
2022-08-19T18:59:30.441Z,25.90
2022-08-19T19:01:59.111Z,25.80
2022-08-19T19:04:30.779Z,25.70
2022-08-19T19:06:57.935Z,25.60
2022-08-19T19:09:25.094Z,25.60
2022-08-19T19:11:58.033Z,25.50
2022-08-19T19:14:48.577Z,25.50
2022-08-19T19:17:16.183Z,25.40
2022-08-19T19:19:44.052Z,25.30
2022-08-19T19:22:18.359Z,25.30
2022-08-19T19:24:45.322Z,25.20
2022-08-19T19:27:14.743Z,25.20
2022-08-19T19:29:42.229Z,25.10
2022-08-19T19:32:20.345Z,25.10
2022-08-19T19:34:47.589Z,25.10
2022-08-19T19:37:14.715Z,25.10
2022-08-19T19:39:45.251Z,25.10
2022-08-19T19:42:20.428Z,25.00
2022-08-19T19:44:50.389Z,25.00
2022-08-19T19:47:18.944Z,24.90
2022-08-19T19:50:13.238Z,24.90
2022-08-19T19:52:40.450Z,24.80
2022-08-19T19:55:09.270Z,24.80
2022-08-19T19:57:36.032Z,24.80
2022-08-19T20:00:03.380Z,24.70
2022-08-19T20:02:30.019Z,24.60
2022-08-19T20:04:57.060Z,24.60
2022-08-19T20:07:43.642Z,24.60
2022-08-19T20:10:10.269Z,24.50
2022-08-19T20:12:37.137Z,24.50
2022-08-19T20:15:04.752Z,24.30
2022-08-19T20:17:32.439Z,24.30
2022-08-19T20:19:59.072Z,24.30
2022-08-19T20:22:25.799Z,24.20
2022-08-19T20:24:53.724Z,24.20
2022-08-19T20:27:20.479Z,24.20
2022-08-19T20:29:50.916Z,24.10
2022-08-19T20:32:18.642Z,24.10
2022-08-19T20:34:48.948Z,24.10
2022-08-19T20:37:16.014Z,24.00
2022-08-19T20:39:42.771Z,24.00
2022-08-19T20:42:09.421Z,23.90
2022-08-19T20:44:36.252Z,23.90
2022-08-19T20:47:03.959Z,23.80
2022-08-19T20:49:31.674Z,23.80
2022-08-19T20:51:58.449Z,23.70
2022-08-19T20:54:26.013Z,23.70
2022-08-19T20:56:53.353Z,23.70
2022-08-19T20:59:21.030Z,23.60
2022-08-19T21:01:52.001Z,23.60
2022-08-19T21:04:21.300Z,23.60
2022-08-19T21:06:49.427Z,23.50
2022-08-19T21:09:16.097Z,23.50
2022-08-19T21:11:42.779Z,23.40
2022-08-19T21:14:09.469Z,23.40
2022-08-19T21:16:36.281Z,23.30
2022-08-19T21:19:03.501Z,23.30
2022-08-19T21:21:30.471Z,23.20
2022-08-19T21:23:57.201Z,23.20
2022-08-19T21:26:24.349Z,23.10
2022-08-19T21:28:51.141Z,23.10
2022-08-19T21:31:17.996Z,23.10
2022-08-19T21:33:44.870Z,23.00
2022-08-19T21:36:11.727Z,23.00
2022-08-19T21:38:38.619Z,22.90
2022-08-19T21:41:06.843Z,22.90
2022-08-19T21:43:35.105Z,22.80
2022-08-19T21:46:01.838Z,22.70
2022-08-19T21:48:28.717Z,22.70
2022-08-19T21:50:55.498Z,22.60
2022-08-19T21:53:22.865Z,22.50
2022-08-19T21:55:53.535Z,22.50
2022-08-19T21:58:28.331Z,22.50
2022-08-19T22:00:58.509Z,22.40
2022-08-19T22:03:25.715Z,22.40
2022-08-19T22:05:52.590Z,22.30
2022-08-19T22:08:19.370Z,22.30
2022-08-19T22:10:46.762Z,22.30
2022-08-19T22:13:14.497Z,22.30
2022-08-19T22:15:42.286Z,22.20
2022-08-19T22:18:09.026Z,22.20
2022-08-19T22:20:35.713Z,22.20
2022-08-19T22:23:06.239Z,22.20
2022-08-19T22:25:36.677Z,22.20
2022-08-19T22:28:06.540Z,22.20
2022-08-19T22:30:38.591Z,22.30
2022-08-19T22:33:11.498Z,22.30
2022-08-19T22:35:41.069Z,22.30
2022-08-19T22:38:09.008Z,22.30
2022-08-19T22:40:39.550Z,22.30
2022-08-19T22:43:11.824Z,22.30
2022-08-19T22:45:39.114Z,22.30
2022-08-19T22:48:07.945Z,22.30
2022-08-19T22:50:35.946Z,22.30
2022-08-19T22:53:06.160Z,22.20
2022-08-19T22:55:34.436Z,22.20
2022-08-19T22:58:01.132Z,22.20
2022-08-19T23:00:29.158Z,22.20
2022-08-19T23:02:57.978Z,22.10
2022-08-19T23:05:27.516Z,22.10
2022-08-19T23:07:57.190Z,22.10
2022-08-19T23:10:27.485Z,22.00
2022-08-19T23:12:57.615Z,22.00
2022-08-19T23:15:28.444Z,21.90
2022-08-19T23:17:58.113Z,22.00
2022-08-19T23:20:27.388Z,22.00
2022-08-19T23:22:54.417Z,21.90
2022-08-19T23:25:25.749Z,21.90
2022-08-19T23:28:11.211Z,21.80
2022-08-19T23:30:40.451Z,21.80
2022-08-19T23:33:13.155Z,21.80
2022-08-19T23:35:40.890Z,21.80
2022-08-19T23:38:08.760Z,21.70
2022-08-19T23:40:37.036Z,21.70
2022-08-19T23:43:07.985Z,21.70
2022-08-19T23:45:39.277Z,21.60
2022-08-19T23:48:07.403Z,21.60
2022-08-19T23:50:34.578Z,21.60
2022-08-19T23:53:02.299Z,21.60
2022-08-19T23:55:32.286Z,21.60
2022-08-19T23:57:59.467Z,21.50
